Time;durP1;ratioP1;P1;durP2;ratioP2;P2;SDS_P1;SDS_P2;PMS_P1;PMS_P2;Temp;Humidity;BMP_temperature;BMP_pressure;BME280_temperature;BME280_humidity;BME280_pressure;Samples;Min_cycle;Max_cycle;Signal;HPM_P1;HPM_P2
2024/01/12 00:01:11;;;;;;;1.80;1.70;;;0.20;98.20;;;;;;4942383;28;20498;-80
2024/01/12 00:03:38;;;;;;;1.70;1.60;;;0.20;98.20;;;;;;4952355;28;20558;-80
2024/01/12 00:06:06;;;;;;;2.00;1.90;;;0.20;98.20;;;;;;4942096;28;20997;-80
2024/01/12 00:08:33;;;;;;;1.70;1.60;;;0.20;98.20;;;;;;4952320;28;20566;-79
2024/01/12 00:11:00;;;;;;;1.70;1.60;;;0.20;98.20;;;;;;4948469;28;20570;-79
2024/01/12 00:13:27;;;;;;;1.70;1.60;;;0.20;98.20;;;;;;4963134;28;20463;-79
2024/01/12 00:15:55;;;;;;;1.70;1.60;;;0.30;98.20;;;;;;4941912;28;20985;-80
2024/01/12 00:18:22;;;;;;;1.80;1.70;;;0.30;98.20;;;;;;4950321;28;20851;-80
2024/01/12 00:20:49;;;;;;;1.70;1.60;;;0.30;98.20;;;;;;4942498;28;20869;-80
2024/01/12 00:23:16;;;;;;;1.70;1.60;;;0.30;98.20;;;;;;4956021;28;20538;-79
2024/01/12 00:25:58;;;;;;;1.63;1.50;;;0.30;98.20;;;;;;4952816;28;20525;-80
2024/01/12 00:28:25;;;;;;;1.80;1.70;;;0.30;98.20;;;;;;4925137;29;20468;-80
2024/01/12 00:30:52;;;;;;;1.60;1.50;;;0.30;98.20;;;;;;4923406;29;20858;-80
2024/01/12 00:33:21;;;;;;;1.70;1.60;;;0.30;98.20;;;;;;4943254;28;20459;-80
2024/01/12 00:35:48;;;;;;;1.63;1.53;;;0.30;98.20;;;;;;4945237;28;20470;-81
2024/01/12 00:38:15;;;;;;;1.70;1.60;;;0.30;98.20;;;;;;4943090;28;20584;-80
2024/01/12 00:40:42;;;;;;;1.60;1.50;;;0.30;98.20;;;;;;4950698;28;20935;-80
2024/01/12 00:43:09;;;;;;;1.90;1.80;;;0.30;98.20;;;;;;4946940;28;20921;-80
2024/01/12 00:45:35;;;;;;;1.70;1.60;;;0.30;98.20;;;;;;4952569;28;20549;-80
2024/01/12 00:48:02;;;;;;;1.60;1.50;;;0.30;98.20;;;;;;4939226;28;20480;-80
2024/01/12 00:50:30;;;;;;;1.80;1.70;;;0.30;98.20;;;;;;4951784;28;20490;-80
2024/01/12 00:52:57;;;;;;;1.70;1.60;;;0.30;98.20;;;;;;4939919;28;21081;-80
2024/01/12 00:55:24;;;;;;;1.70;1.60;;;0.30;98.20;;;;;;4952084;28;20495;-80
2024/01/12 00:57:51;;;;;;;1.70;1.60;;;0.30;98.20;;;;;;4940405;28;20474;-80
2024/01/12 01:00:18;;;;;;;1.60;1.50;;;0.30;98.20;;;;;;4950604;28;20485;-80
2024/01/12 01:02:45;;;;;;;4.73;4.33;;;0.40;98.20;;;;;;4941173;28;20486;-80
2024/01/12 01:05:12;;;;;;;1.70;1.60;;;0.40;98.20;;;;;;4952503;28;20529;-80
2024/01/12 01:07:40;;;;;;;1.70;1.60;;;0.40;98.20;;;;;;4940000;28;21016;-81
2024/01/12 01:10:07;;;;;;;2.57;2.40;;;0.40;98.20;;;;;;4954161;28;20490;-80
2024/01/12 01:12:34;;;;;;;1.80;1.70;;;0.30;98.20;;;;;;4946033;28;20487;-80
2024/01/12 01:15:04;;;;;;;4.13;3.83;;;0.30;98.20;;;;;;4951990;28;20685;-80
2024/01/12 01:17:31;;;;;;;1.70;1.60;;;0.40;98.20;;;;;;4941313;28;20574;-80
2024/01/12 01:19:58;;;;;;;1.70;1.60;;;0.40;98.20;;;;;;4949927;28;20475;-80
2024/01/12 01:22:25;;;;;;;1.60;1.50;;;0.40;98.20;;;;;;4944283;28;20482;-80
2024/01/12 01:24:53;;;;;;;1.60;1.50;;;0.40;98.20;;;;;;4951487;28;20509;-81
2024/01/12 01:27:20;;;;;;;1.60;1.50;;;0.40;98.20;;;;;;4940211;28;20485;-80
2024/01/12 01:29:47;;;;;;;2.00;1.83;;;0.40;98.20;;;;;;4950807;28;20490;-80
2024/01/12 01:32:14;;;;;;;1.60;1.50;;;0.40;98.20;;;;;;4941929;28;21101;-80
2024/01/12 01:34:40;;;;;;;1.60;1.50;;;0.40;98.20;;;;;;4951234;28;20554;-81
2024/01/12 01:37:07;;;;;;;1.63;1.50;;;0.40;98.20;;;;;;4943839;28;20490;-82
2024/01/12 01:39:34;;;;;;;1.70;1.60;;;0.40;98.20;;;;;;4955170;28;20871;-80
2024/01/12 01:42:03;;;;;;;1.63;1.50;;;0.40;98.20;;;;;;4944941;28;20487;-80
2024/01/12 01:44:29;;;;;;;1.70;1.60;;;0.50;98.20;;;;;;4954532;28;20485;-80
2024/01/12 01:46:58;;;;;;;1.70;1.60;;;0.50;98.20;;;;;;4943828;28;21063;-81
2024/01/12 01:49:26;;;;;;;1.80;1.70;;;0.50;98.20;;;;;;4948162;28;21029;-80
2024/01/12 01:51:53;;;;;;;1.67;1.50;;;0.50;98.20;;;;;;4945374;28;20501;-80
2024/01/12 01:54:20;;;;;;;1.60;1.50;;;0.50;98.20;;;;;;4954568;28;20477;-80
2024/01/12 01:56:47;;;;;;;1.63;1.50;;;0.50;98.20;;;;;;4945320;28;20486;-79
2024/01/12 01:59:16;;;;;;;1.63;1.50;;;0.50;98.20;;;;;;4953334;28;20513;-81
2024/01/12 02:01:43;;;;;;;1.80;1.70;;;0.50;98.20;;;;;;4944158;28;20483;-81
2024/01/12 02:04:11;;;;;;;1.70;1.60;;;0.50;98.20;;;;;;4953772;28;20481;-80
2024/01/12 02:06:38;;;;;;;1.70;1.60;;;0.50;98.20;;;;;;4943715;28;20487;-80
2024/01/12 02:09:06;;;;;;;1.83;1.73;;;0.50;98.20;;;;;;4952579;28;20463;-80
2024/01/12 02:11:33;;;;;;;1.70;1.60;;;0.50;98.20;;;;;;4937581;28;20491;-80
2024/01/12 02:14:06;;;;;;;1.70;1.60;;;0.50;98.20;;;;;;4946981;28;20479;-79
2024/01/12 02:16:34;;;;;;;1.70;1.60;;;0.50;98.20;;;;;;4948858;28;20988;-79
2024/01/12 02:19:01;;;;;;;1.60;1.50;;;0.50;98.20;;;;;;4951125;28;20490;-79
2024/01/12 02:21:38;;;;;;;1.70;1.60;;;0.50;98.20;;;;;;4950189;28;20479;-79
2024/01/12 02:24:05;;;;;;;2.43;2.23;;;0.50;98.20;;;;;;4949692;28;20778;-80
2024/01/12 02:26:32;;;;;;;1.63;1.50;;;0.50;98.20;;;;;;4943535;28;20573;-79
2024/01/12 02:29:00;;;;;;;1.80;1.70;;;0.50;98.20;;;;;;4951967;28;20557;-80
2024/01/12 02:31:27;;;;;;;1.70;1.60;;;0.50;98.20;;;;;;4946795;28;20526;-79
2024/01/12 02:33:54;;;;;;;1.70;1.60;;;0.50;98.20;;;;;;4953225;28;20466;-80
2024/01/12 02:36:21;;;;;;;1.60;1.50;;;0.50;98.20;;;;;;4941960;28;20562;-80
2024/01/12 02:38:50;;;;;;;1.80;1.70;;;0.50;98.20;;;;;;4952665;28;20473;-80
2024/01/12 02:41:17;;;;;;;1.70;1.60;;;0.50;98.20;;;;;;4945227;28;20490;-80
2024/01/12 02:43:44;;;;;;;1.70;1.60;;;0.50;98.20;;;;;;4953353;28;20976;-80
2024/01/12 02:46:11;;;;;;;1.83;1.73;;;0.50;98.20;;;;;;4948584;28;20494;-79
2024/01/12 02:48:38;;;;;;;1.60;1.50;;;0.50;98.20;;;;;;4958725;28;20468;-80
2024/01/12 02:51:05;;;;;;;1.70;1.60;;;0.50;98.20;;;;;;4944185;28;20494;-80
2024/01/12 02:53:32;;;;;;;1.80;1.70;;;0.50;98.20;;;;;;4952818;28;20463;-80
2024/01/12 02:56:00;;;;;;;1.70;1.50;;;0.50;98.20;;;;;;4943358;28;20463;-80
2024/01/12 02:58:27;;;;;;;1.70;1.60;;;0.50;98.20;;;;;;4953259;28;20791;-80
2024/01/12 03:00:54;;;;;;;1.70;1.60;;;0.50;98.20;;;;;;4945617;28;21017;-80
2024/01/12 03:03:21;;;;;;;1.80;1.70;;;0.60;98.20;;;;;;4937393;28;20475;-80
2024/01/12 03:05:49;;;;;;;1.80;1.70;;;0.60;98.20;;;;;;4943858;28;20472;-80
2024/01/12 03:08:16;;;;;;;1.60;1.50;;;0.60;98.20;;;;;;4951555;28;20479;-80
2024/01/12 03:10:43;;;;;;;1.70;1.60;;;0.60;98.20;;;;;;4949299;28;20487;-81
2024/01/12 03:13:11;;;;;;;1.77;1.67;;;0.60;98.20;;;;;;4938502;28;20589;-80
2024/01/12 03:15:38;;;;;;;1.80;1.70;;;0.60;98.20;;;;;;4951739;28;20459;-80
2024/01/12 03:18:05;;;;;;;1.70;1.60;;;0.60;98.20;;;;;;4939801;28;20494;-80
2024/01/12 03:20:32;;;;;;;3.73;3.53;;;0.60;98.20;;;;;;4952438;28;20493;-80
2024/01/12 03:22:59;;;;;;;2.40;2.23;;;0.60;98.20;;;;;;4941787;28;20518;-80
2024/01/12 03:25:26;;;;;;;1.70;1.60;;;0.60;98.20;;;;;;4952964;28;20526;-80
2024/01/12 03:27:53;;;;;;;1.70;1.60;;;0.60;98.20;;;;;;4942585;28;20483;-81
2024/01/12 03:30:21;;;;;;;1.60;1.50;;;0.60;98.20;;;;;;4952658;28;21031;-80
2024/01/12 03:32:48;;;;;;;1.70;1.60;;;0.70;98.20;;;;;;4941017;28;20486;-81
2024/01/12 03:35:14;;;;;;;1.60;1.40;;;0.70;98.20;;;;;;4952524;28;20897;-80
2024/01/12 03:37:41;;;;;;;1.70;1.60;;;0.70;98.20;;;;;;4941114;28;20487;-80
2024/01/12 03:40:10;;;;;;;1.70;1.60;;;0.70;98.20;;;;;;4950370;28;20487;-80
2024/01/12 03:42:37;;;;;;;1.70;1.60;;;0.70;98.20;;;;;;4944027;28;20483;-80
2024/01/12 03:45:05;;;;;;;1.60;1.50;;;0.70;98.20;;;;;;4952396;28;20916;-80
2024/01/12 03:47:33;;;;;;;1.60;1.50;;;0.70;98.20;;;;;;4943365;28;20930;-81
2024/01/12 03:50:00;;;;;;;1.60;1.50;;;0.70;98.20;;;;;;4952274;28;20498;-81
2024/01/12 03:52:26;;;;;;;1.70;1.60;;;0.70;98.20;;;;;;4943168;28;20801;-81
2024/01/12 03:54:53;;;;;;;1.60;1.50;;;0.70;98.20;;;;;;4952537;28;21062;-81
2024/01/12 03:57:20;;;;;;;1.63;1.50;;;0.70;98.20;;;;;;4943919;28;20497;-80
2024/01/12 03:59:47;;;;;;;1.63;1.53;;;0.70;98.20;;;;;;4950595;28;20993;-80
2024/01/12 04:02:14;;;;;;;1.83;1.73;;;0.70;98.20;;;;;;4941303;28;20594;-81
2024/01/12 04:04:43;;;;;;;1.80;1.70;;;0.70;98.20;;;;;;4953034;28;20475;-80
2024/01/12 04:07:10;;;;;;;1.60;1.50;;;0.70;98.20;;;;;;4939477;28;20486;-81
2024/01/12 04:09:37;;;;;;;1.70;1.60;;;0.70;98.20;;;;;;4950727;28;20489;-80
2024/01/12 04:12:04;;;;;;;1.80;1.70;;;0.70;98.20;;;;;;4946277;28;20889;-80
2024/01/12 04:14:31;;;;;;;3.70;3.50;;;0.70;98.20;;;;;;4952025;28;20858;-80
2024/01/12 04:16:58;;;;;;;1.77;1.67;;;0.70;98.20;;;;;;4940842;28;20493;-81
2024/01/12 04:19:26;;;;;;;1.70;1.50;;;0.70;98.20;;;;;;4951358;28;21021;-80
2024/01/12 04:22:24;;;;;;;1.70;1.60;;;0.70;98.20;;;;;;4951204;28;20793;-81
2024/01/12 04:24:51;;;;;;;1.63;1.50;;;0.70;98.20;;;;;;4950018;28;20467;-80
2024/01/12 04:27:18;;;;;;;1.60;1.50;;;0.70;98.20;;;;;;4943743;28;20585;-81
2024/01/12 04:29:45;;;;;;;1.80;1.70;;;0.70;98.20;;;;;;4951726;28;20486;-81
2024/01/12 04:32:12;;;;;;;1.70;1.60;;;0.70;98.20;;;;;;4941463;28;20570;-80
2024/01/12 04:34:39;;;;;;;1.67;1.50;;;0.80;98.20;;;;;;4953243;28;20551;-80
2024/01/12 04:37:06;;;;;;;1.70;1.60;;;0.80;98.20;;;;;;4941549;28;20494;-80
2024/01/12 04:39:34;;;;;;;1.63;1.50;;;0.80;98.20;;;;;;4949366;28;20484;-80
2024/01/12 04:42:01;;;;;;;1.77;1.67;;;0.70;98.20;;;;;;4950661;28;20570;-79
2024/01/12 04:44:28;;;;;;;1.73;1.63;;;0.80;98.20;;;;;;4960547;28;20967;-79
2024/01/12 04:46:55;;;;;;;1.67;1.57;;;0.80;98.20;;;;;;4943854;28;20546;-81
2024/01/12 04:49:22;;;;;;;1.70;1.60;;;0.80;98.20;;;;;;4951277;28;20466;-81
2024/01/12 04:52:00;;;;;;;1.80;1.70;;;0.80;98.20;;;;;;4942670;28;21009;-81
2024/01/12 04:54:30;;;;;;;1.90;1.63;;;0.80;98.20;;;;;;4954023;28;20499;-80
2024/01/12 04:57:03;;;;;;;1.60;1.50;;;0.80;98.20;;;;;;4939997;28;20484;-82
2024/01/12 04:59:32;;;;;;;1.87;1.77;;;0.80;98.20;;;;;;4951586;28;20490;-81
2024/01/12 05:02:19;;;;;;;1.67;1.50;;;0.80;98.20;;;;;;4935224;28;20583;-82
2024/01/12 05:04:47;;;;;;;1.70;1.60;;;0.80;98.20;;;;;;4947931;28;21010;-82
2024/01/12 05:07:14;;;;;;;1.63;1.50;;;0.80;98.20;;;;;;4943993;28;20494;-81
2024/01/12 05:09:40;;;;;;;1.70;1.60;;;0.80;98.20;;;;;;4952311;28;20590;-81
2024/01/12 05:12:09;;;;;;;1.60;1.50;;;0.80;98.20;;;;;;4943862;28;20498;-82
2024/01/12 05:14:36;;;;;;;1.70;1.60;;;0.80;98.20;;;;;;4955116;28;20467;-81
2024/01/12 05:17:03;;;;;;;1.70;1.50;;;0.90;98.20;;;;;;4944452;28;20494;-81
2024/01/12 05:22:57;;;;;;;1.70;1.60;;;0.90;98.20;;;;;;4953828;28;20471;-81
2024/01/12 05:25:24;;;;;;;1.60;1.50;;;0.80;98.20;;;;;;4966723;28;20761;-81
2024/01/12 05:27:57;;;;;;;1.70;1.60;;;0.90;98.20;;;;;;4946675;28;20483;-81
2024/01/12 05:30:24;;;;;;;1.70;1.60;;;0.90;98.20;;;;;;4955616;28;20487;-81
2024/01/12 05:32:51;;;;;;;1.70;1.60;;;0.90;98.20;;;;;;4944665;28;20486;-81
2024/01/12 05:35:18;;;;;;;1.70;1.60;;;0.90;98.20;;;;;;4954336;28;21007;-81
2024/01/12 05:38:06;;;;;;;1.67;1.50;;;0.90;98.20;;;;;;4944928;28;20483;-81
2024/01/12 05:40:44;;;;;;;1.60;1.50;;;0.90;98.20;;;;;;4950609;28;20989;-81
2024/01/12 05:43:13;;;;;;;1.80;1.70;;;0.90;98.20;;;;;;4943811;28;20481;-81
2024/01/12 05:45:40;;;;;;;1.67;1.57;;;0.90;98.20;;;;;;4955125;28;20462;-80
2024/01/12 05:48:07;;;;;;;1.70;1.60;;;0.90;98.20;;;;;;4943734;28;20501;-81
2024/01/12 05:50:34;;;;;;;1.60;1.50;;;1.00;98.20;;;;;;4954778;28;21297;-81
2024/01/12 05:53:01;;;;;;;1.67;1.57;;;0.90;98.20;;;;;;4943382;28;20573;-81
2024/01/12 05:55:27;;;;;;;1.60;1.50;;;0.90;98.20;;;;;;4955914;28;20477;-81
2024/01/12 05:57:54;;;;;;;1.70;1.60;;;0.90;98.20;;;;;;4943581;28;21000;-81
2024/01/12 06:00:22;;;;;;;1.67;1.57;;;0.90;98.20;;;;;;4955079;28;20502;-81
2024/01/12 06:02:51;;;;;;;1.70;1.60;;;0.90;98.20;;;;;;4943192;28;20478;-81
2024/01/12 06:05:18;;;;;;;1.63;1.50;;;0.90;98.20;;;;;;4955816;28;20470;-82
2024/01/12 06:07:45;;;;;;;1.70;1.60;;;0.90;98.20;;;;;;4946202;28;20497;-82
2024/01/12 06:10:12;;;;;;;1.70;1.60;;;0.90;98.20;;;;;;4954025;28;20490;-82
2024/01/12 06:12:39;;;;;;;4.87;4.60;;;0.90;98.20;;;;;;4940861;28;20491;-83
2024/01/12 06:15:14;;;;;;;1.70;1.60;;;0.90;98.20;;;;;;4955906;28;20550;-82
2024/01/12 06:17:54;;;;;;;1.60;1.50;;;1.00;98.20;;;;;;4945170;28;20482;-82
2024/01/12 06:20:48;;;;;;;1.60;1.50;;;1.00;98.20;;;;;;4954352;28;20481;-79
2024/01/12 06:23:15;;;;;;;1.70;1.60;;;0.90;98.20;;;;;;4923043;29;20468;-82
2024/01/12 06:25:42;;;;;;;1.60;1.50;;;0.90;98.20;;;;;;4945469;28;20470;-81
2024/01/12 06:28:09;;;;;;;1.80;1.70;;;0.90;98.20;;;;;;4943189;28;20586;-82
2024/01/12 06:30:38;;;;;;;1.70;1.60;;;1.00;98.20;;;;;;4956324;28;20489;-83
2024/01/12 06:33:07;;;;;;;2.27;2.07;;;1.00;98.20;;;;;;4942678;28;20788;-81
2024/01/12 06:36:13;;;;;;;1.70;1.60;;;1.00;98.20;;;;;;4958465;28;21058;-82
2024/01/12 06:38:40;;;;;;;1.60;1.50;;;1.00;98.20;;;;;;4954522;28;20529;-83
2024/01/12 06:41:10;;;;;;;9.80;4.93;;;1.00;98.20;;;;;;4945967;28;20498;-81
2024/01/12 06:43:37;;;;;;;1.70;1.60;;;1.00;98.20;;;;;;4951004;28;20493;-81
2024/01/12 06:46:06;;;;;;;1.60;1.50;;;1.00;98.20;;;;;;4941620;28;21011;-83
2024/01/12 06:48:35;;;;;;;1.70;1.60;;;1.00;98.20;;;;;;4937909;28;20925;-83
2024/01/12 06:51:22;;;;;;;1.63;1.50;;;1.00;98.20;;;;;;4944628;28;20497;-82
2024/01/12 06:53:49;;;;;;;1.60;1.50;;;1.00;98.20;;;;;;4954003;28;20485;-84
2024/01/12 06:56:19;;;;;;;1.60;1.50;;;1.00;98.20;;;;;;4945218;28;20482;-84
2024/01/12 06:58:46;;;;;;;1.70;1.60;;;1.00;98.20;;;;;;4957784;28;20473;-83
2024/01/12 07:01:13;;;;;;;1.60;1.50;;;1.00;98.20;;;;;;4938429;28;20494;-81
2024/01/12 07:03:42;;;;;;;1.60;1.50;;;1.00;98.20;;;;;;4952744;28;20494;-81
2024/01/12 07:06:08;;;;;;;1.63;1.50;;;1.00;98.20;;;;;;4935522;28;20511;-81
2024/01/12 07:08:55;;;;;;;1.70;1.60;;;1.00;98.20;;;;;;4941320;28;20477;-81
2024/01/12 07:11:23;;;;;;;1.77;1.67;;;1.00;98.20;;;;;;4950977;28;20494;-82
2024/01/12 07:13:50;;;;;;;1.60;1.50;;;1.10;98.20;;;;;;4951663;28;20467;-81
2024/01/12 07:16:17;;;;;;;1.60;1.50;;;1.10;98.20;;;;;;4937771;28;20495;-81
2024/01/12 07:18:52;;;;;;;1.67;1.50;;;1.10;98.20;;;;;;4938263;28;20539;-81
2024/01/12 07:21:19;;;;;;;1.70;1.60;;;1.10;98.20;;;;;;4933866;28;20502;-80
2024/01/12 07:23:46;;;;;;;1.67;1.50;;;1.10;98.20;;;;;;4938032;28;20498;-84
2024/01/12 07:26:12;;;;;;;1.63;1.50;;;1.10;98.20;;;;;;4935998;28;20589;-82
2024/01/12 07:28:39;;;;;;;1.67;1.50;;;1.10;98.20;;;;;;4945025;28;20474;-83
2024/01/12 07:31:06;;;;;;;1.63;1.50;;;1.10;98.20;;;;;;4937922;28;20494;-85
2024/01/12 07:33:33;;;;;;;1.90;1.80;;;1.10;98.20;;;;;;4935699;28;20494;-83
2024/01/12 07:36:03;;;;;;;1.67;1.50;;;1.10;98.20;;;;;;4941014;28;21010;-85
2024/01/12 07:38:30;;;;;;;1.63;1.50;;;1.10;98.20;;;;;;4943096;28;20469;-83
2024/01/12 07:40:57;;;;;;;1.70;1.60;;;1.10;98.20;;;;;;4939604;28;21244;-84
2024/01/12 07:44:00;;;;;;;1.67;1.40;;;1.10;98.20;;;;;;4950198;28;20467;-84
2024/01/12 07:49:27;;;;;;;1.60;1.50;;;1.10;98.20;;;;;;4946884;28;20470;-83
2024/01/12 07:51:58;;;;;;;1.63;1.50;;;1.10;98.20;;;;;;4939978;28;20493;-84
2024/01/12 07:54:25;;;;;;;1.63;1.50;;;1.10;98.20;;;;;;4945333;28;20561;-84
2024/01/12 07:56:52;;;;;;;1.70;1.50;;;1.20;98.20;;;;;;4937941;28;20487;-85
2024/01/12 07:59:19;;;;;;;1.60;1.50;;;1.10;98.20;;;;;;4956511;28;20545;-84
2024/01/12 08:01:45;;;;;;;1.67;1.50;;;1.20;98.20;;;;;;4938585;28;20479;-83
2024/01/12 08:04:14;;;;;;;1.70;1.60;;;1.20;98.20;;;;;;4957106;28;20561;-83
2024/01/12 08:06:41;;;;;;;1.70;1.60;;;1.20;98.20;;;;;;4937516;28;20547;-83
2024/01/12 08:09:13;;;;;;;1.63;1.40;;;1.20;98.20;;;;;;4946560;28;20473;-83
2024/01/12 08:11:40;;;;;;;1.70;1.50;;;1.20;98.20;;;;;;4934161;28;20547;-81
2024/01/12 08:14:07;;;;;;;1.63;1.50;;;1.20;98.20;;;;;;4941962;28;20557;-84
2024/01/12 08:16:34;;;;;;;1.60;1.50;;;1.20;98.20;;;;;;4935800;28;20932;-84
2024/01/12 08:19:01;;;;;;;1.67;1.50;;;1.20;98.20;;;;;;4942806;28;20474;-84
2024/01/12 08:21:31;;;;;;;1.67;1.40;;;1.20;98.20;;;;;;4946906;28;20479;-84
2024/01/12 08:24:07;;;;;;;1.80;1.70;;;1.30;98.20;;;;;;4955489;28;20462;-84
2024/01/12 08:26:45;;;;;;;1.70;1.60;;;1.30;98.20;;;;;;4940184;28;20568;-82
2024/01/12 08:29:12;;;;;;;1.70;1.50;;;1.30;98.20;;;;;;4957390;28;20558;-84
2024/01/12 08:32:12;;;;;;;1.67;1.40;;;1.30;98.20;;;;;;4935000;28;20515;-84
2024/01/12 08:34:57;;;;;;;;;;;;;;;;;;;;;
2024/01/12 08:37:24;;;;;;;1.90;1.80;;;1.30;98.20;;;;;;4945734;28;20531;-84
2024/01/12 08:39:51;;;;;;;1.60;1.50;;;1.30;98.20;;;;;;4954405;28;20494;-84
2024/01/12 08:42:20;;;;;;;1.63;1.47;;;1.40;98.20;;;;;;4932142;28;20479;-83
2024/01/12 08:44:47;;;;;;;1.60;1.47;;;1.40;98.20;;;;;;4952969;28;20549;-85
2024/01/12 08:47:28;;;;;;;1.70;1.50;;;1.40;98.20;;;;;;4943580;28;20574;-83
2024/01/12 08:49:55;;;;;;;1.63;1.40;;;1.40;98.20;;;;;;4954399;28;20490;-84
2024/01/12 08:52:23;;;;;;;1.70;1.60;;;1.40;98.20;;;;;;4931696;28;20495;-85
2024/01/12 08:58:21;;;;;;;1.70;1.50;;;1.40;98.20;;;;;;4892859;29;20492;-83
2024/01/12 09:00:48;;;;;;;1.70;1.60;;;1.40;98.20;;;;;;4934528;28;20916;-82
2024/01/12 09:03:15;;;;;;;1.63;1.50;;;1.40;98.20;;;;;;4940831;28;20473;-84
2024/01/12 09:05:42;;;;;;;1.67;1.53;;;1.40;98.20;;;;;;4956557;28;20950;-83
2024/01/12 09:08:09;;;;;;;1.90;1.80;;;1.40;98.20;;;;;;4935542;28;21139;-83
2024/01/12 09:10:36;;;;;;;1.70;1.60;;;1.40;98.20;;;;;;4954859;28;20570;-84
2024/01/12 09:13:02;;;;;;;1.63;1.50;;;1.40;98.20;;;;;;4945342;28;20570;-83
2024/01/12 09:15:31;;;;;;;1.70;1.57;;;1.40;98.20;;;;;;4957773;28;20844;-84
2024/01/12 09:17:59;;;;;;;1.63;1.40;;;1.40;98.20;;;;;;4943280;28;20510;-83
2024/01/12 09:20:26;;;;;;;1.63;1.50;;;1.40;98.20;;;;;;4958087;28;20872;-84
2024/01/12 09:22:53;;;;;;;1.70;1.50;;;1.40;98.20;;;;;;4929850;28;20567;-84
2024/01/12 09:25:20;;;;;;;1.70;1.47;;;1.40;98.20;;;;;;4955854;28;20471;-84
2024/01/12 09:27:52;;;;;;;1.60;1.40;;;1.40;98.20;;;;;;4944658;28;20499;-85
2024/01/12 10:42:12;;;;;;;1.60;1.50;;;1.80;98.20;;;;;;5379515;23;20597;-86
2024/01/12 10:44:40;;;;;;;1.70;1.57;;;1.80;98.20;;;;;;4960506;28;20494;-84
2024/01/12 10:47:11;;;;;;;1.63;1.50;;;1.80;98.20;;;;;;4958850;28;20493;-86
2024/01/12 10:49:47;;;;;;;1.70;1.60;;;1.90;98.20;;;;;;4966830;28;20501;-84
2024/01/12 10:52:22;;;;;;;1.60;1.43;;;1.90;98.20;;;;;;4950995;28;20555;-85
2024/01/12 10:54:52;;;;;;;1.60;1.40;;;1.90;98.20;;;;;;4940764;29;20486;-85
2024/01/12 10:57:21;;;;;;;1.60;1.47;;;1.90;98.20;;;;;;4947949;28;20550;-84
2024/01/12 10:59:50;;;;;;;1.70;1.60;;;1.90;98.20;;;;;;4951875;28;20467;-85
2024/01/12 11:02:18;;;;;;;1.70;1.60;;;1.90;98.20;;;;;;4949769;28;20493;-86
2024/01/12 11:04:46;;;;;;;1.60;1.40;;;1.90;98.20;;;;;;4954825;28;20470;-83
2024/01/12 11:07:15;;;;;;;1.63;1.47;;;1.90;98.20;;;;;;4944944;28;20520;-85
2024/01/12 11:09:42;;;;;;;1.67;1.50;;;1.90;98.20;;;;;;4957971;28;20511;-83
2024/01/12 11:12:09;;;;;;;1.67;1.50;;;1.90;98.20;;;;;;4952936;28;20496;-86
2024/01/12 11:14:40;;;;;;;1.67;1.50;;;1.90;98.20;;;;;;4959723;28;20477;-85
2024/01/12 11:17:27;;;;;;;1.70;1.50;;;1.90;98.20;;;;;;4948414;28;20534;-84
2024/01/12 11:20:04;;;;;;;15.10;14.00;;;1.90;98.20;;;;;;4952645;29;20940;-85
2024/01/12 11:22:31;;;;;;;1.70;1.50;;;1.90;98.20;;;;;;4947981;28;20492;-84
2024/01/12 11:24:59;;;;;;;1.60;1.50;;;1.90;98.20;;;;;;4953259;28;20470;-83
2024/01/12 11:27:32;;;;;;;1.63;1.40;;;1.90;98.20;;;;;;4953454;28;20632;-84
2024/01/12 11:30:00;;;;;;;1.70;1.60;;;1.90;98.20;;;;;;4950355;29;20558;-85
2024/01/12 11:32:28;;;;;;;2.10;1.90;;;1.90;98.20;;;;;;4951598;28;20593;-86
2024/01/12 11:35:10;;;;;;;1.60;1.40;;;1.90;98.20;;;;;;4953822;28;20476;-85
2024/01/12 11:37:37;;;;;;;1.70;1.60;;;1.90;98.20;;;;;;4949635;28;20521;-86
2024/01/12 11:40:08;;;;;;;1.70;1.50;;;1.90;98.20;;;;;;4953952;28;20494;-85
2024/01/12 11:42:36;;;;;;;1.70;1.50;;;1.90;98.20;;;;;;4946900;28;20483;-85
2024/01/12 11:45:09;;;;;;;1.63;1.40;;;1.90;98.20;;;;;;4941381;29;20463;-83
2024/01/12 11:47:38;;;;;;;1.60;1.40;;;1.90;98.20;;;;;;4951006;28;20562;-85
2024/01/12 11:50:05;;;;;;;1.67;1.50;;;1.90;98.20;;;;;;4936279;29;20471;-84
2024/01/12 11:52:32;;;;;;;1.87;1.73;;;1.90;98.20;;;;;;4949119;28;20491;-84
2024/01/12 11:54:59;;;;;;;1.60;1.50;;;2.00;98.20;;;;;;4946983;29;20473;-84
2024/01/12 11:57:26;;;;;;;1.60;1.47;;;2.00;98.20;;;;;;4943614;28;20556;-85
2024/01/12 11:59:55;;;;;;;1.60;1.50;;;2.00;98.20;;;;;;4946418;28;20473;-85
2024/01/12 12:02:23;;;;;;;1.60;1.40;;;2.10;98.20;;;;;;4941439;28;20493;-83
2024/01/12 12:04:51;;;;;;;1.63;1.40;;;2.10;98.20;;;;;;4951278;28;20814;-83
2024/01/12 12:07:24;;;;;;;1.90;1.80;;;2.10;98.20;;;;;;4948526;28;20487;-84
2024/01/12 12:09:50;;;;;;;1.60;1.40;;;2.20;98.20;;;;;;4953655;28;20475;-85
2024/01/12 12:12:17;;;;;;;1.63;1.40;;;2.20;98.20;;;;;;4942326;28;20491;-86
2024/01/12 12:14:56;;;;;;;1.70;1.50;;;2.20;98.20;;;;;;4949658;28;20486;-84
2024/01/12 12:17:27;;;;;;;1.63;1.40;;;2.20;98.20;;;;;;4945522;28;20482;-84
2024/01/12 12:19:54;;;;;;;1.70;1.60;;;2.20;98.20;;;;;;4951924;28;20467;-84
2024/01/12 12:22:21;;;;;;;1.67;1.40;;;2.20;98.20;;;;;;4948047;28;20486;-83
2024/01/12 12:24:51;;;;;;;1.67;1.50;;;2.20;98.20;;;;;;4951426;28;20565;-82
2024/01/12 12:27:20;;;;;;;1.70;1.50;;;2.20;98.20;;;;;;4941630;28;21077;-84
2024/01/12 12:29:47;;;;;;;1.60;1.40;;;2.30;98.20;;;;;;4946136;29;20567;-85
2024/01/12 12:32:48;;;;;;;1.60;1.40;;;2.30;98.20;;;;;;4942843;28;20495;-83
2024/01/12 12:35:18;;;;;;;1.63;1.50;;;2.30;98.20;;;;;;4952424;29;20467;-85
2024/01/12 12:37:46;;;;;;;1.60;1.40;;;2.30;98.20;;;;;;4949049;28;20918;-85
2024/01/12 12:40:14;;;;;;;1.80;1.70;;;2.30;98.20;;;;;;4942863;29;20550;-86
2024/01/12 12:42:41;;;;;;;1.63;1.40;;;2.30;98.20;;;;;;4952355;28;20496;-86
2024/01/12 12:45:09;;;;;;;1.63;1.40;;;2.30;98.20;;;;;;4941544;28;20517;-86
2024/01/12 12:47:37;;;;;;;1.70;1.50;;;2.30;98.20;;;;;;4945238;28;20592;-85
2024/01/12 12:50:04;;;;;;;1.70;1.50;;;2.30;98.20;;;;;;4947196;28;20942;-87
2024/01/12 12:52:33;;;;;;;1.63;1.40;;;2.30;98.20;;;;;;4951736;28;20818;-84
2024/01/12 12:55:00;;;;;;;1.60;1.40;;;2.30;98.20;;;;;;4943820;28;20506;-85
2024/01/12 12:57:28;;;;;;;1.70;1.50;;;2.30;98.20;;;;;;4943457;28;20608;-84
2024/01/12 12:59:55;;;;;;;1.77;1.67;;;2.30;98.20;;;;;;4945027;29;20886;-85
2024/01/12 13:02:22;;;;;;;1.63;1.40;;;2.30;98.20;;;;;;4947958;28;20510;-84
2024/01/12 13:04:49;;;;;;;1.67;1.40;;;2.40;98.20;;;;;;4952109;29;20487;-83
2024/01/12 13:07:16;;;;;;;1.60;1.47;;;2.30;98.20;;;;;;4945740;28;20494;-85
2024/01/12 13:09:44;;;;;;;1.70;1.60;;;2.40;98.20;;;;;;4952156;28;20479;-83
2024/01/12 13:12:11;;;;;;;1.60;1.30;;;2.40;98.20;;;;;;4945193;28;20877;-87
2024/01/12 13:14:38;;;;;;;1.80;1.50;;;2.40;98.20;;;;;;4947521;29;20508;-84
2024/01/12 13:17:05;;;;;;;1.70;1.50;;;2.40;98.20;;;;;;4948327;28;20573;-84
2024/01/12 13:19:32;;;;;;;1.67;1.50;;;2.40;98.20;;;;;;4954296;28;20468;-83
2024/01/12 13:22:00;;;;;;;1.60;1.40;;;2.40;98.20;;;;;;4953106;28;20593;-84
2024/01/12 13:24:28;;;;;;;1.67;1.40;;;2.40;98.20;;;;;;4958838;28;20971;-83
2024/01/12 13:26:56;;;;;;;1.60;1.40;;;2.40;98.20;;;;;;4947178;28;20566;-85
2024/01/12 13:29:23;;;;;;;1.67;1.47;;;2.40;98.20;;;;;;4943066;28;20563;-84
2024/01/12 13:31:50;;;;;;;2.57;2.37;;;2.40;98.20;;;;;;4950491;28;20484;-83
2024/01/12 13:34:17;;;;;;;1.60;1.40;;;2.40;98.20;;;;;;4957244;28;20495;-85
2024/01/12 13:36:44;;;;;;;1.63;1.47;;;2.40;98.20;;;;;;4952814;28;20573;-83
2024/01/12 13:39:12;;;;;;;1.67;1.50;;;2.40;98.20;;;;;;4958423;28;20483;-85
2024/01/12 13:41:39;;;;;;;1.60;1.50;;;2.40;98.20;;;;;;4939463;28;20552;-83
2024/01/12 13:44:08;;;;;;;1.83;1.67;;;2.40;98.20;;;;;;4960746;28;20514;-83
2024/01/12 13:46:35;;;;;;;1.63;1.40;;;2.40;98.20;;;;;;4956718;28;20520;-83
2024/01/12 13:49:01;;;;;;;1.60;1.40;;;2.40;98.20;;;;;;4972221;28;20577;-84
2024/01/12 13:51:28;;;;;;;1.60;1.43;;;2.40;98.20;;;;;;4948771;28;20564;-82
2024/01/12 13:53:55;;;;;;;1.70;1.57;;;2.40;98.20;;;;;;4972283;28;20482;-83
2024/01/12 13:56:22;;;;;;;1.70;1.57;;;2.40;98.20;;;;;;4955382;28;20474;-82
2024/01/12 13:58:49;;;;;;;1.60;1.40;;;2.40;98.20;;;;;;4965818;28;20463;-84
2024/01/12 14:01:17;;;;;;;1.67;1.40;;;2.40;98.20;;;;;;4959417;28;20521;-82
2024/01/12 14:03:48;;;;;;;1.70;1.50;;;2.40;98.20;;;;;;4954041;28;20486;-86
2024/01/12 14:06:15;;;;;;;1.70;1.50;;;2.40;98.20;;;;;;4937302;28;20769;-84
2024/01/12 14:08:42;;;;;;;1.63;1.50;;;2.40;98.20;;;;;;4959094;28;20467;-83
2024/01/12 14:11:10;;;;;;;1.60;1.40;;;2.40;98.20;;;;;;4933871;28;20565;-81
2024/01/12 14:13:40;;;;;;;1.70;1.50;;;2.40;98.20;;;;;;4956729;28;21034;-79
2024/01/12 14:16:08;;;;;;;1.70;1.50;;;2.40;98.20;;;;;;4943382;28;20495;-81
2024/01/12 14:18:36;;;;;;;1.67;1.50;;;2.30;98.20;;;;;;4959385;28;21144;-82
2024/01/12 14:21:04;;;;;;;1.70;1.53;;;2.30;98.20;;;;;;4931622;28;20491;-83
2024/01/12 14:23:31;;;;;;;1.60;1.40;;;2.30;98.20;;;;;;4963278;28;20468;-82
2024/01/12 14:25:58;;;;;;;1.70;1.50;;;2.30;98.20;;;;;;4941207;28;20500;-83
2024/01/12 14:28:25;;;;;;;1.70;1.53;;;2.30;98.20;;;;;;4958521;28;21276;-82